Time;durP1;ratioP1;P1;durP2;ratioP2;P2;SDS_P1;SDS_P2;PMS_P1;PMS_P2;Temp;Humidity;BMP_temperature;BMP_pressure;BME280_temperature;BME280_humidity;BME280_pressure;Samples;Min_cycle;Max_cycle;Signal;HPM_P1;HPM_P2
2022/07/28 00:00:22;;;;;;;2.38;1.40;;;;;;;;;;5061410;28;20172;-66
2022/07/28 00:02:47;;;;;;;3.60;1.20;;;;;;;;;;5059719;28;20205;-66
2022/07/28 00:05:12;;;;;;;3.33;1.35;;;;;;;;;;5060612;28;20256;-66
2022/07/28 00:07:38;;;;;;;2.03;1.25;;;;;;;;;;5057243;28;20230;-66
2022/07/28 00:10:04;;;;;;;2.38;1.23;;;;;;;;;;5061782;28;20619;-66
2022/07/28 00:12:29;;;;;;;4.32;1.40;;;;;;;;;;5060753;28;20200;-66
2022/07/28 00:14:54;;;;;;;1.75;1.00;;;;;;;;;;5065280;28;20262;-66
2022/07/28 00:17:20;;;;;;;1.95;1.38;;;;;;;;;;5062315;28;20234;-66
2022/07/28 00:19:45;;;;;;;6.32;1.67;;;;;;;;;;5058817;28;20197;-66
2022/07/28 00:22:11;;;;;;;4.00;1.48;;;;;;;;;;5053120;28;20174;-66
2022/07/28 00:24:36;;;;;;;3.35;1.45;;;;;;;;;;5055052;28;20225;-66
2022/07/28 00:27:03;;;;;;;4.03;1.65;;;;;;;;;;5060294;28;20185;-66
2022/07/28 00:29:28;;;;;;;5.88;1.52;;;;;;;;;;5059253;28;20177;-66
2022/07/28 00:31:54;;;;;;;3.78;1.70;;;;;;;;;;5055822;28;20679;-66
2022/07/28 00:34:19;;;;;;;2.00;1.50;;;;;;;;;;5058457;28;20251;-66
2022/07/28 00:36:45;;;;;;;3.30;1.67;;;;;;;;;;5054884;28;20187;-66
2022/07/28 00:39:10;;;;;;;2.10;1.50;;;;;;;;;;5060554;28;20610;-66
2022/07/28 00:41:35;;;;;;;4.53;1.90;;;;;;;;;;5051763;28;20188;-66
2022/07/28 00:44:05;;;;;;;8.52;2.13;;;;;;;;;;5048576;28;20287;-66
2022/07/28 00:46:30;;;;;;;3.35;1.75;;;;;;;;;;5059140;28;20246;-66
2022/07/28 00:48:55;;;;;;;2.92;1.70;;;;;;;;;;5060892;28;20637;-66
2022/07/28 00:51:23;;;;;;;3.15;1.88;;;;;;;;;;5053193;28;20408;-66
2022/07/28 00:53:49;;;;;;;4.80;1.77;;;;;;;;;;5052573;28;20185;-66
2022/07/28 00:56:14;;;;;;;4.95;1.88;;;;;;;;;;5059604;28;20193;-66
2022/07/28 00:58:40;;;;;;;3.95;1.70;;;;;;;;;;5050528;28;20200;-67
2022/07/28 01:01:07;;;;;;;4.97;1.73;;;;;;;;;;5049954;28;20234;-66
2022/07/28 01:03:36;;;;;;;4.13;1.90;;;;;;;;;;5051113;28;20193;-66
2022/07/28 01:06:10;;;;;;;6.72;1.85;;;;;;;;;;5056708;28;20180;-66
2022/07/28 01:08:40;;;;;;;3.33;1.52;;;;;;;;;;5050730;28;20230;-66
2022/07/28 01:11:19;;;;;;;5.70;1.92;;;;;;;;;;5060232;28;20200;-66
2022/07/28 01:14:09;;;;;;;4.88;2.03;;;;;;;;;;5053091;28;20228;-66
2022/07/28 01:17:01;;;;;;;6.70;2.15;;;;;;;;;;5059596;28;20181;-66
2022/07/28 01:19:39;;;;;;;3.08;1.80;;;;;;;;;;5052454;28;20216;-66
2022/07/28 01:22:09;;;;;;;4.57;1.80;;;;;;;;;;5056124;28;20180;-67
2022/07/28 01:25:07;;;;;;;3.95;1.98;;;;;;;;;;5066140;28;20227;-67
2022/07/28 01:27:56;;;;;;;4.57;1.83;;;;;;;;;;5061384;28;20641;-67
2022/07/28 01:30:24;;;;;;;6.13;2.10;;;;;;;;;;5051277;28;20661;-66
2022/07/28 01:32:57;;;;;;;3.58;1.70;;;;;;;;;;5055617;28;20212;-66
2022/07/28 01:35:27;;;;;;;3.08;1.85;;;;;;;;;;5057274;28;20176;-66
2022/07/28 01:37:58;;;;;;;3.75;2.00;;;;;;;;;;5063297;28;20628;-66
2022/07/28 01:40:27;;;;;;;4.55;2.08;;;;;;;;;;5058833;28;20181;-66
2022/07/28 01:42:57;;;;;;;5.10;2.72;;;;;;;;;;5057740;28;20656;-67
2022/07/28 01:45:24;;;;;;;3.92;2.30;;;;;;;;;;5054691;28;20170;-67
2022/07/28 01:47:54;;;;;;;3.10;1.98;;;;;;;;;;5058304;28;20196;-66
2022/07/28 01:50:22;;;;;;;5.32;2.05;;;;;;;;;;5059112;28;20220;-67
2022/07/28 01:52:49;;;;;;;3.78;2.15;;;;;;;;;;5050667;28;20256;-66
2022/07/28 01:55:19;;;;;;;2.47;2.10;;;;;;;;;;5058208;28;20230;-66
2022/07/28 01:57:46;;;;;;;2.45;2.10;;;;;;;;;;5063478;28;20185;-66
2022/07/28 02:00:12;;;;;;;4.97;2.40;;;;;;;;;;5052545;28;20181;-66
2022/07/28 02:02:41;;;;;;;5.25;2.17;;;;;;;;;;5055348;28;20230;-66
2022/07/28 02:05:09;;;;;;;5.50;2.20;;;;;;;;;;5051538;28;20426;-66
2022/07/28 02:07:36;;;;;;;5.10;2.63;;;;;;;;;;5050357;28;20676;-67
2022/07/28 02:10:03;;;;;;;7.03;2.40;;;;;;;;;;5059200;28;20676;-67
2022/07/28 02:12:30;;;;;;;3.45;2.67;;;;;;;;;;5061809;28;20556;-66
2022/07/28 02:14:57;;;;;;;4.30;2.47;;;;;;;;;;5054413;28;20191;-66
2022/07/28 02:17:30;;;;;;;4.28;2.40;;;;;;;;;;5053766;28;20208;-66
2022/07/28 02:19:57;;;;;;;3.42;2.33;;;;;;;;;;5059195;28;20327;-67
2022/07/28 02:22:25;;;;;;;6.10;2.80;;;;;;;;;;5058951;28;20231;-67
2022/07/28 02:24:52;;;;;;;6.30;2.40;;;;;;;;;;5060126;28;20878;-67
2022/07/28 02:27:25;;;;;;;6.07;2.65;;;;;;;;;;5065960;28;20189;-66
2022/07/28 02:30:02;;;;;;;4.35;2.50;;;;;;;;;;5052492;28;20256;-66
2022/07/28 02:32:30;;;;;;;5.93;2.97;;;;;;;;;;5059314;28;20189;-66
2022/07/28 02:35:16;;;;;;;6.43;2.85;;;;;;;;;;5064791;28;20189;-66
2022/07/28 02:37:46;;;;;;;5.57;2.90;;;;;;;;;;5064341;28;20644;-67
2022/07/28 02:40:14;;;;;;;5.90;3.25;;;;;;;;;;5056989;28;20544;-66
2022/07/28 02:42:40;;;;;;;4.63;2.80;;;;;;;;;;5054120;28;20716;-66
2022/07/28 02:45:08;;;;;;;10.55;3.20;;;;;;;;;;5055440;28;20341;-66
2022/07/28 02:47:37;;;;;;;6.03;3.20;;;;;;;;;;5062099;28;20185;-66
2022/07/28 02:50:04;;;;;;;6.78;3.72;;;;;;;;;;5056466;28;20200;-66
2022/07/28 02:52:31;;;;;;;6.32;3.30;;;;;;;;;;5061326;28;20225;-66
2022/07/28 02:54:58;;;;;;;7.03;3.33;;;;;;;;;;5057525;28;20189;-66
2022/07/28 02:57:24;;;;;;;8.48;3.25;;;;;;;;;;5055176;28;20189;-66
2022/07/28 02:59:51;;;;;;;9.32;3.40;;;;;;;;;;5053535;28;20242;-66
2022/07/28 03:02:19;;;;;;;6.97;3.60;;;;;;;;;;5053513;28;20185;-66
2022/07/28 03:05:03;;;;;;;5.53;3.42;;;;;;;;;;5054142;28;20185;-66
2022/07/28 03:07:31;;;;;;;4.55;3.28;;;;;;;;;;5058870;28;20185;-66
2022/07/28 03:09:57;;;;;;;6.40;3.63;;;;;;;;;;5052829;28;20339;-66
2022/07/28 03:12:23;;;;;;;5.45;3.78;;;;;;;;;;5059606;28;20185;-66
2022/07/28 03:14:48;;;;;;;4.97;3.58;;;;;;;;;;5056089;28;20675;-66
2022/07/28 03:17:14;;;;;;;6.15;3.53;;;;;;;;;;5060695;28;20647;-66
2022/07/28 03:19:39;;;;;;;5.68;3.75;;;;;;;;;;5065050;28;20189;-66
2022/07/28 03:22:05;;;;;;;6.57;3.85;;;;;;;;;;5053620;28;20177;-66
2022/07/28 03:24:40;;;;;;;5.65;4.45;;;;;;;;;;5056657;28;20318;-66
2022/07/28 03:27:27;;;;;;;8.15;4.22;;;;;;;;;;5051932;28;20212;-66
2022/07/28 03:30:06;;;;;;;8.80;3.97;;;;;;;;;;5054637;28;20192;-66
2022/07/28 03:32:39;;;;;;;6.80;3.97;;;;;;;;;;5055013;28;20227;-66
2022/07/28 03:35:05;;;;;;;7.55;3.67;;;;;;;;;;5052022;28;20253;-66
2022/07/28 03:37:37;;;;;;;6.15;3.80;;;;;;;;;;5059596;28;21581;-67
2022/07/28 03:40:04;;;;;;;10.65;4.40;;;;;;;;;;5059445;28;20181;-67
2022/07/28 03:42:30;;;;;;;8.82;4.30;;;;;;;;;;5061263;28;20177;-67
2022/07/28 03:44:56;;;;;;;8.10;4.90;;;;;;;;;;5057098;28;20177;-66
2022/07/28 03:47:22;;;;;;;7.35;4.45;;;;;;;;;;5069696;28;20184;-66
2022/07/28 03:49:48;;;;;;;7.75;4.00;;;;;;;;;;5064017;28;20178;-66
2022/07/28 03:52:13;;;;;;;9.77;4.63;;;;;;;;;;5059141;28;20603;-66
2022/07/28 03:54:39;;;;;;;4.53;3.65;;;;;;;;;;5060256;28;20189;-66
2022/07/28 03:57:04;;;;;;;11.48;4.05;;;;;;;;;;5061524;28;20217;-67
2022/07/28 03:59:29;;;;;;;8.50;4.15;;;;;;;;;;5057451;28;20188;-66
2022/07/28 04:01:55;;;;;;;6.28;4.63;;;;;;;;;;5062586;28;20182;-66
2022/07/28 04:04:21;;;;;;;5.57;3.75;;;;;;;;;;5053322;28;20743;-67
2022/07/28 04:06:46;;;;;;;5.93;3.70;;;;;;;;;;5063525;28;20177;-66
2022/07/28 04:09:12;;;;;;;6.25;4.03;;;;;;;;;;5055106;28;20188;-66
2022/07/28 04:11:37;;;;;;;4.57;3.83;;;;;;;;;;5069098;28;20295;-67
2022/07/28 04:14:02;;;;;;;7.95;4.28;;;;;;;;;;5062057;28;20184;-66
2022/07/28 04:16:28;;;;;;;7.80;4.00;;;;;;;;;;5063675;28;20177;-66
2022/07/28 04:18:53;;;;;;;7.25;4.00;;;;;;;;;;5065761;28;20227;-66
2022/07/28 04:21:19;;;;;;;7.22;4.10;;;;;;;;;;5054599;28;20189;-66
2022/07/28 04:23:44;;;;;;;6.53;4.07;;;;;;;;;;5056911;28;20698;-66
2022/07/28 04:26:09;;;;;;;6.15;3.88;;;;;;;;;;5061855;28;20225;-67
2022/07/28 04:28:35;;;;;;;7.03;4.25;;;;;;;;;;5059014;28;20177;-66
2022/07/28 04:31:00;;;;;;;7.63;4.10;;;;;;;;;;5059999;28;20226;-66
2022/07/28 04:33:25;;;;;;;7.45;4.10;;;;;;;;;;5059166;28;20192;-66
2022/07/28 04:35:52;;;;;;;7.03;4.60;;;;;;;;;;5066413;28;20189;-66
2022/07/28 04:38:19;;;;;;;9.00;4.70;;;;;;;;;;5050090;28;20189;-66
2022/07/28 04:40:45;;;;;;;7.85;4.35;;;;;;;;;;5054211;28;20212;-66
2022/07/28 04:43:11;;;;;;;9.23;4.53;;;;;;;;;;5059056;28;20180;-66
2022/07/28 04:45:37;;;;;;;7.18;4.45;;;;;;;;;;5068763;28;20833;-67
2022/07/28 04:48:03;;;;;;;7.85;4.32;;;;;;;;;;5048017;28;20626;-67
2022/07/28 04:50:28;;;;;;;6.40;3.80;;;;;;;;;;5057718;28;20265;-67
2022/07/28 04:52:54;;;;;;;6.35;4.35;;;;;;;;;;5055176;28;20176;-67
2022/07/28 04:55:19;;;;;;;7.53;3.75;;;;;;;;;;5052805;28;20334;-67
2022/07/28 04:57:45;;;;;;;7.57;4.13;;;;;;;;;;5055931;28;20180;-66
2022/07/28 05:00:13;;;;;;;6.30;3.67;;;;;;;;;;5055686;28;20176;-66
2022/07/28 05:02:41;;;;;;;7.50;4.00;;;;;;;;;;5054689;28;20185;-67
2022/07/28 05:05:07;;;;;;;10.02;4.32;;;;;;;;;;5057398;28;20188;-66
2022/07/28 05:07:32;;;;;;;7.93;4.05;;;;;;;;;;5050800;28;20251;-66
2022/07/28 05:09:57;;;;;;;6.22;4.13;;;;;;;;;;5049102;28;20213;-66
2022/07/28 05:12:23;;;;;;;7.63;3.95;;;;;;;;;;5050146;28;20186;-66
2022/07/28 05:14:48;;;;;;;8.48;3.78;;;;;;;;;;5054888;28;20369;-67
2022/07/28 05:17:13;;;;;;;6.57;3.35;;;;;;;;;;5060634;28;20192;-66
2022/07/28 05:19:39;;;;;;;4.93;3.20;;;;;;;;;;5054334;28;20185;-66
2022/07/28 05:22:04;;;;;;;7.38;3.08;;;;;;;;;;5062154;28;20448;-66
2022/07/28 05:24:29;;;;;;;10.38;3.33;;;;;;;;;;5050992;28;20315;-66
2022/07/28 05:26:55;;;;;;;7.95;2.80;;;;;;;;;;5055912;28;20177;-66
2022/07/28 05:29:20;;;;;;;9.32;3.10;;;;;;;;;;5050437;28;20207;-67
2022/07/28 05:31:45;;;;;;;7.75;2.95;;;;;;;;;;5051598;28;20738;-66
2022/07/28 05:34:11;;;;;;;11.05;2.75;;;;;;;;;;5050635;28;20188;-67
2022/07/28 05:36:36;;;;;;;3.67;2.08;;;;;;;;;;5065080;28;20276;-67
2022/07/28 05:39:02;;;;;;;3.42;2.40;;;;;;;;;;5051930;28;20259;-67
2022/07/28 05:41:27;;;;;;;3.70;2.42;;;;;;;;;;5063328;28;20177;-67
2022/07/28 05:43:53;;;;;;;3.85;1.83;;;;;;;;;;5053086;28;20250;-68
2022/07/28 05:46:18;;;;;;;6.93;2.47;;;;;;;;;;5049633;28;20185;-67
2022/07/28 05:48:44;;;;;;;5.78;2.17;;;;;;;;;;5051251;28;20181;-67
2022/07/28 05:51:10;;;;;;;6.80;1.98;;;;;;;;;;5050843;28;20205;-67
2022/07/28 05:53:35;;;;;;;9.70;2.58;;;;;;;;;;5058836;28;20189;-68
2022/07/28 05:56:00;;;;;;;6.35;1.92;;;;;;;;;;5050364;28;20420;-68
2022/07/28 05:58:26;;;;;;;3.60;1.67;;;;;;;;;;5048718;28;20210;-68
2022/07/28 06:00:51;;;;;;;3.95;1.95;;;;;;;;;;5049357;28;20181;-66
2022/07/28 06:03:16;;;;;;;5.10;2.03;;;;;;;;;;5048285;28;20251;-65
2022/07/28 06:05:42;;;;;;;7.03;2.25;;;;;;;;;;5053411;28;20181;-65
2022/07/28 06:08:07;;;;;;;8.25;2.03;;;;;;;;;;5049505;28;20700;-67
2022/07/28 06:13:17;;;;;;;6.85;1.50;;;;;;;;;;5048521;28;20307;-66
2022/07/28 06:15:45;;;;;;;6.38;2.05;;;;;;;;;;5054024;28;20204;-67
2022/07/28 06:18:10;;;;;;;4.13;1.40;;;;;;;;;;5047573;28;20250;-67
2022/07/28 06:20:36;;;;;;;5.82;1.33;;;;;;;;;;5048383;28;20481;-67
2022/07/28 06:23:01;;;;;;;4.07;1.40;;;;;;;;;;5053709;28;20638;-67
2022/07/28 06:25:28;;;;;;;3.38;1.08;;;;;;;;;;5046335;28;20220;-67
2022/07/28 06:27:55;;;;;;;4.10;1.05;;;;;;;;;;5048497;28;20182;-66
2022/07/28 06:30:20;;;;;;;4.93;1.50;;;;;;;;;;5045735;28;20205;-66
2022/07/28 06:32:46;;;;;;;2.30;0.98;;;;;;;;;;5055601;28;20731;-66
2022/07/28 06:35:15;;;;;;;5.20;1.10;;;;;;;;;;5047214;28;20550;-66
2022/07/28 06:37:43;;;;;;;4.38;0.70;;;;;;;;;;5051388;28;20181;-67
2022/07/28 06:40:10;;;;;;;1.67;0.90;;;;;;;;;;5046836;28;20185;-67
2022/07/28 06:42:37;;;;;;;1.55;1.08;;;;;;;;;;5052620;28;20589;-66
2022/07/28 06:45:03;;;;;;;2.05;0.85;;;;;;;;;;5050784;28;20178;-67
2022/07/28 06:47:29;;;;;;;2.83;0.98;;;;;;;;;;5051038;28;20276;-67
2022/07/28 06:49:54;;;;;;;5.28;0.85;;;;;;;;;;5054835;28;20609;-66
2022/07/28 06:52:20;;;;;;;3.90;0.95;;;;;;;;;;5046396;28;20663;-67
2022/07/28 06:54:49;;;;;;;2.83;1.00;;;;;;;;;;5051284;28;20223;-67
2022/07/28 06:57:15;;;;;;;2.45;1.15;;;;;;;;;;5052318;28;20178;-67
2022/07/28 06:59:40;;;;;;;4.35;1.00;;;;;;;;;;5051752;28;20574;-70
2022/07/28 07:02:05;;;;;;;4.40;1.20;;;;;;;;;;5067533;28;20168;-67
2022/07/28 07:04:31;;;;;;;9.40;0.93;;;;;;;;;;5056842;28;20190;-67
2022/07/28 07:06:56;;;;;;;5.97;1.00;;;;;;;;;;5052131;28;20481;-66
2022/07/28 07:09:21;;;;;;;4.38;0.80;;;;;;;;;;5053355;28;20652;-67
2022/07/28 07:11:47;;;;;;;2.10;0.70;;;;;;;;;;5052371;28;20800;-67
2022/07/28 07:14:12;;;;;;;3.83;1.00;;;;;;;;;;5052267;28;20185;-66
2022/07/28 07:16:37;;;;;;;3.45;0.90;;;;;;;;;;5056938;28;20238;-66
2022/07/28 07:19:03;;;;;;;4.00;1.10;;;;;;;;;;5054082;28;20334;-66
2022/07/28 07:21:28;;;;;;;1.65;0.60;;;;;;;;;;5054077;28;20201;-66
2022/07/28 07:23:54;;;;;;;4.43;0.63;;;;;;;;;;5051426;28;20203;-66
2022/07/28 07:26:19;;;;;;;2.92;0.57;;;;;;;;;;5049388;28;20193;-67
2022/07/28 07:28:45;;;;;;;3.00;0.82;;;;;;;;;;5048838;28;20189;-67
2022/07/28 07:31:10;;;;;;;4.00;0.75;;;;;;;;;;5054573;28;20267;-66
2022/07/28 07:33:35;;;;;;;3.45;0.77;;;;;;;;;;5064094;28;20203;-66
2022/07/28 07:36:01;;;;;;;4.57;0.60;;;;;;;;;;5050152;28;20181;-68
2022/07/28 07:38:26;;;;;;;3.58;0.82;;;;;;;;;;5058984;28;20641;-67
2022/07/28 07:40:51;;;;;;;3.42;0.77;;;;;;;;;;5064315;28;20641;-65
2022/07/28 07:43:17;;;;;;;2.38;0.60;;;;;;;;;;5059691;28;20191;-66
2022/07/28 07:45:42;;;;;;;1.90;0.60;;;;;;;;;;5062194;28;20200;-65
2022/07/28 07:48:08;;;;;;;2.90;0.70;;;;;;;;;;5063338;28;20201;-66
2022/07/28 07:50:33;;;;;;;3.45;0.50;;;;;;;;;;5061663;28;20289;-73
2022/07/28 07:52:59;;;;;;;3.03;0.80;;;;;;;;;;5051496;28;20188;-65
2022/07/28 07:55:25;;;;;;;3.20;0.70;;;;;;;;;;5059871;28;20199;-68
2022/07/28 07:57:50;;;;;;;2.90;0.60;;;;;;;;;;5069054;28;20200;-66
2022/07/28 08:00:16;;;;;;;2.90;0.60;;;;;;;;;;5049631;28;20165;-65
2022/07/28 08:02:41;;;;;;;5.55;0.60;;;;;;;;;;5056218;28;20185;-66
2022/07/28 08:05:08;;;;;;;3.42;0.80;;;;;;;;;;5050353;28;20178;-66
2022/07/28 08:07:34;;;;;;;5.20;0.80;;;;;;;;;;5048650;28;20505;-66
2022/07/28 08:09:59;;;;;;;3.25;0.82;;;;;;;;;;5048142;28;20192;-65
2022/07/28 08:12:25;;;;;;;2.63;0.68;;;;;;;;;;5055418;28;20192;-64
2022/07/28 08:14:50;;;;;;;3.70;0.70;;;;;;;;;;5060838;28;20267;-66
2022/07/28 08:17:15;;;;;;;4.00;0.73;;;;;;;;;;5060582;28;20185;-66
2022/07/28 08:19:41;;;;;;;1.05;0.60;;;;;;;;;;5059202;28;20188;-65
2022/07/28 08:22:06;;;;;;;1.55;0.60;;;;;;;;;;5065248;28;20181;-66
2022/07/28 08:24:32;;;;;;;1.92;0.50;;;;;;;;;;5069942;28;20300;-66
2022/07/28 08:26:57;;;;;;;2.28;0.52;;;;;;;;;;5057944;28;20181;-65
2022/07/28 08:29:22;;;;;;;4.68;0.85;;;;;;;;;;5053537;28;20234;-65
2022/07/28 08:31:48;;;;;;;2.78;0.80;;;;;;;;;;5060006;28;20205;-69
2022/07/28 08:34:16;;;;;;;5.55;0.70;;;;;;;;;;5050584;28;20178;-66
2022/07/28 08:36:41;;;;;;;5.47;0.68;;;;;;;;;;5052701;28;20260;-66
2022/07/28 08:39:07;;;;;;;1.13;0.60;;;;;;;;;;5061863;28;20292;-66
2022/07/28 08:41:47;;;;;;;2.65;0.70;;;;;;;;;;5056900;28;20616;-70
2022/07/28 08:44:16;;;;;;;7.38;1.02;;;;;;;;;;5048771;28;20242;-66
2022/07/28 08:46:43;;;;;;;2.35;0.70;;;;;;;;;;5060899;28;20215;-67
2022/07/28 08:49:08;;;;;;;3.40;0.88;;;;;;;;;;5050446;28;20178;-66
2022/07/28 08:51:36;;;;;;;1.77;0.50;;;;;;;;;;5049666;28;20201;-64
2022/07/28 08:54:02;;;;;;;2.10;0.50;;;;;;;;;;5067781;28;20188;-66
2022/07/28 08:56:28;;;;;;;2.05;0.70;;;;;;;;;;5065171;28;20189;-65
2022/07/28 08:58:54;;;;;;;2.47;0.70;;;;;;;;;;5053430;28;20177;-73
2022/07/28 09:01:21;;;;;;;4.45;0.80;;;;;;;;;;5051635;28;20242;-66
2022/07/28 09:03:48;;;;;;;1.90;0.60;;;;;;;;;;5066084;28;20185;-66
2022/07/28 09:06:13;;;;;;;2.88;0.70;;;;;;;;;;5055846;28;20243;-65
2022/07/28 09:08:39;;;;;;;1.58;0.70;;;;;;;;;;5048097;28;20254;-64
2022/07/28 09:11:06;;;;;;;2.53;0.63;;;;;;;;;;5056946;28;20208;-65
2022/07/28 09:13:33;;;;;;;1.38;0.50;;;;;;;;;;5055212;28;20181;-66
2022/07/28 09:15:59;;;;;;;3.08;0.75;;;;;;;;;;5067663;28;20500;-66
2022/07/28 09:18:24;;;;;;;1.95;0.50;;;;;;;;;;5053691;28;20508;-66
2022/07/28 09:20:50;;;;;;;7.20;0.70;;;;;;;;;;5052684;28;20183;-65
2022/07/28 09:23:15;;;;;;;4.00;0.70;;;;;;;;;;5057485;28;20206;-66
2022/07/28 09:25:40;;;;;;;2.63;0.70;;;;;;;;;;5052808;28;20268;-65
2022/07/28 09:28:17;;;;;;;3.33;0.63;;;;;;;;;;5053694;28;20512;-65
2022/07/28 09:30:46;;;;;;;3.90;0.60;;;;;;;;;;5050034;28;20280;-65
2022/07/28 09:33:12;;;;;;;2.47;0.50;;;;;;;;;;5067365;28;20185;-66
2022/07/28 09:35:44;;;;;;;2.97;0.60;;;;;;;;;;5053510;28;20208;-71
2022/07/28 09:38:10;;;;;;;1.83;0.50;;;;;;;;;;5051730;28;20180;-65
2022/07/28 09:40:35;;;;;;;2.47;0.55;;;;;;;;;;5053670;28;20645;-66
2022/07/28 09:43:00;;;;;;;2.25;0.63;;;;;;;;;;4353295;28;10000710;-65
2022/07/28 09:45:27;;;;;;;1.20;0.55;;;;;;;;;;5051723;28;20177;-66
2022/07/28 09:48:13;;;;;;;1.38;0.43;;;;;;;;;;5046346;28;20189;-64
2022/07/28 09:50:40;;;;;;;2.50;0.80;;;;;;;;;;5062356;28;20304;-65
2022/07/28 09:53:23;;;;;;;2.65;0.80;;;;;;;;;;5061561;28;20250;-66
2022/07/28 09:55:57;;;;;;;2.38;0.70;;;;;;;;;;5058613;28;20176;-68
2022/07/28 09:58:23;;;;;;;3.95;0.80;;;;;;;;;;5052674;28;20648;-67
2022/07/28 10:00:48;;;;;;;1.42;0.45;;;;;;;;;;5050454;28;20192;-67
2022/07/28 10:03:25;;;;;;;1.85;0.50;;;;;;;;;;5059154;28;20181;-66
2022/07/28 10:05:50;;;;;;;4.93;0.80;;;;;;;;;;5049657;28;20224;-67
2022/07/28 10:08:15;;;;;;;2.78;0.77;;;;;;;;;;5050107;28;20263;-70
2022/07/28 10:10:41;;;;;;;2.38;0.60;;;;;;;;;;5048293;28;20263;-68
2022/07/28 10:13:06;;;;;;;6.15;0.90;;;;;;;;;;5054820;28;20256;-68
2022/07/28 10:18:15;;;;;;;3.72;0.80;;;;;;;;;;5056299;28;20334;-67
2022/07/28 10:20:41;;;;;;;2.22;0.50;;;;;;;;;;5052208;28;20268;-67
2022/07/28 10:23:12;;;;;;;4.20;0.70;;;;;;;;;;5054101;28;20204;-67
2022/07/28 10:25:39;;;;;;;4.88;0.85;;;;;;;;;;5051108;28;20368;-67
2022/07/28 10:28:05;;;;;;;2.03;0.50;;;;;;;;;;5051509;28;20664;-69
2022/07/28 10:30:36;;;;;;;2.70;0.77;;;;;;;;;;5053703;28;20205;-66
2022/07/28 10:33:06;;;;;;;0.88;0.40;;;;;;;;;;5051166;28;20208;-65
2022/07/28 10:35:32;;;;;;;2.70;0.85;;;;;;;;;;5056422;28;20193;-65
2022/07/28 10:38:02;;;;;;;4.90;0.68;;;;;;;;;;5063245;28;20203;-65
2022/07/28 10:40:50;;;;;;;3.38;0.77;;;;;;;;;;5052660;28;20658;-65
2022/07/28 10:43:15;;;;;;;4.13;0.98;;;;;;;;;;5062672;28;20198;-66
2022/07/28 10:45:42;;;;;;;4.93;0.90;;;;;;;;;;5063976;28;20275;-67
2022/07/28 10:48:07;;;;;;;1.85;0.55;;;;;;;;;;5049832;28;20265;-66
2022/07/28 10:50:34;;;;;;;4.10;0.93;;;;;;;;;;5058684;28;20332;-67
2022/07/28 10:53:02;;;;;;;3.60;0.80;;;;;;;;;;5061427;28;20618;-67
2022/07/28 10:55:53;;;;;;;1.38;0.60;;;;;;;;;;5057263;28;20189;-66
2022/07/28 10:58:35;;;;;;;2.80;0.60;;;;;;;;;;5057742;28;20177;-66
2022/07/28 11:01:00;;;;;;;1.52;0.55;;;;;;;;;;5063193;28;20211;-65
2022/07/28 11:03:42;;;;;;;2.10;0.60;;;;;;;;;;5052217;28;20201;-67
2022/07/28 11:06:41;;;;;;;2.50;1.05;;;;;;;;;;5056449;28;20251;-66
2022/07/28 11:09:15;;;;;;;2.22;0.70;;;;;;;;;;5054263;28;20287;-69
2022/07/28 11:11:44;;;;;;;1.83;0.70;;;;;;;;;;5053847;28;20224;-67
2022/07/28 11:14:23;;;;;;;1.75;0.60;;;;;;;;;;5052935;28;20186;-66
2022/07/28 11:16:49;;;;;;;1.67;0.50;;;;;;;;;;5051494;28;20575;-65
2022/07/28 11:19:17;;;;;;;4.55;0.73;;;;;;;;;;5052690;28;20188;-67
2022/07/28 11:22:18;;;;;;;3.60;0.85;;;;;;;;;;4355805;28;10000816;-67
2022/07/28 11:24:55;;;;;;;0.80;0.60;;;;;;;;;;5041273;28;20275;-68
2022/07/28 11:27:42;;;;;;;1.95;0.70;;;;;;;;;;5057491;28;20188;-67
2022/07/28 11:30:31;;;;;;;1.90;0.50;;;;;;;;;;5053869;28;20597;-69
2022/07/28 11:33:04;;;;;;;3.05;0.80;;;;;;;;;;5073131;28;20217;-69
2022/07/28 11:35:39;;;;;;;3.72;0.60;;;;;;;;;;5052851;28;20189;-65
2022/07/28 11:38:06;;;;;;;2.47;0.77;;;;;;;;;;5051631;28;20644;-67
2022/07/28 11:40:37;;;;;;;2.05;0.65;;;;;;;;;;5054337;28;20607;-65
2022/07/28 11:43:21;;;;;;;4.80;0.50;;;;;;;;;;5049431;28;20185;-69
2022/07/28 11:45:48;;;;;;;0.73;0.50;;;;;;;;;;5056092;28;20549;-66
2022/07/28 11:48:24;;;;;;;2.53;0.70;;;;;;;;;;5061484;28;20180;-66
2022/07/28 11:51:01;;;;;;;2.38;0.75;;;;;;;;;;5055602;28;20261;-68
2022/07/28 11:53:33;;;;;;;2.38;0.73;;;;;;;;;;5053433;28;20656;-67
2022/07/28 11:56:01;;;;;;;1.58;0.50;;;;;;;;;;5050117;28;20196;-68
2022/07/28 11:58:27;;;;;;;2.00;0.70;;;;;;;;;;5064872;28;20188;-67
2022/07/28 12:01:29;;;;;;;1.55;0.60;;;;;;;;;;5061745;28;20196;-65
2022/07/28 12:03:57;;;;;;;1.77;0.50;;;;;;;;;;5017216;28;20189;-65
2022/07/28 12:06:32;;;;;;;1.73;0.70;;;;;;;;;;5050680;28;20239;-65
2022/07/28 12:08:59;;;;;;;2.67;0.68;;;;;;;;;;5055643;28;20267;-65
2022/07/28 12:11:26;;;;;;;2.88;0.80;;;;;;;;;;5060101;28;20232;-67
2022/07/28 12:14:18;;;;;;;2.70;0.70;;;;;;;;;;5055004;28;20184;-67
2022/07/28 12:16:48;;;;;;;2.83;0.60;;;;;;;;;;5051176;28;20258;-66
2022/07/28 12:19:15;;;;;;;2.63;0.60;;;;;;;;;;5059506;28;20173;-66
2022/07/28 12:21:49;;;;;;;1.42;0.65;;;;;;;;;;5056670;28;20181;-66
2022/07/28 12:24:28;;;;;;;1.27;0.60;;;;;;;;;;5058540;28;20225;-69
2022/07/28 12:26:54;;;;;;;2.50;0.73;;;;;;;;;;5053785;28;20204;-66
2022/07/28 12:29:20;;;;;;;2.25;0.85;;;;;;;;;;5062328;28;20176;-65
2022/07/28 12:31:54;;;;;;;2.35;0.63;;;;;;;;;;5054256;28;20217;-65
2022/07/28 12:34:19;;;;;;;1.98;0.60;;;;;;;;;;5054950;28;20267;-70
2022/07/28 12:36:45;;;;;;;1.33;0.57;;;;;;;;;;5051474;28;20268;-65
2022/07/28 12:39:10;;;;;;;5.22;1.13;;;;;;;;;;5057956;28;20180;-70
2022/07/28 12:41:39;;;;;;;4.78;0.75;;;;;;;;;;5052165;28;20597;-67
2022/07/28 12:44:05;;;;;;;2.65;0.63;;;;;;;;;;5050957;28;20177;-67
2022/07/28 12:46:31;;;;;;;1.38;0.90;;;;;;;;;;5058376;28;20234;-67
2022/07/28 12:48:59;;;;;;;3.58;0.68;;;;;;;;;;5056732;28;20205;-67
2022/07/28 12:51:39;;;;;;;3.95;0.82;;;;;;;;;;5056351;28;20209;-70
2022/07/28 12:54:07;;;;;;;3.10;0.85;;;;;;;;;;5053290;28;20259;-67
2022/07/28 12:56:52;;;;;;;2.65;0.75;;;;;;;;;;5053655;28;20187;-70
2022/07/28 12:59:19;;;;;;;3.13;0.85;;;;;;;;;;5054267;28;20654;-65
2022/07/28 13:01:53;;;;;;;1.02;0.55;;;;;;;;;;5054329;28;20263;-69
2022/07/28 13:04:47;;;;;;;0.90;0.70;;;;;;;;;;5055106;28;20196;-66
2022/07/28 13:07:18;;;;;;;2.13;0.50;;;;;;;;;;5059981;28;20178;-66
2022/07/28 13:09:46;;;;;;;4.85;0.73;;;;;;;;;;5055518;28;20739;-67
2022/07/28 13:12:21;;;;;;;3.50;0.70;;;;;;;;;;5057325;28;20201;-66
2022/07/28 13:14:52;;;;;;;3.00;0.80;;;;;;;;;;5047161;28;20197;-67
2022/07/28 13:17:19;;;;;;;1.27;0.50;;;;;;;;;;5054960;28;20789;-66
2022/07/28 13:19:47;;;;;;;6.60;0.77;;;;;;;;;;5054685;28;20713;-67
2022/07/28 13:22:24;;;;;;;2.92;0.60;;;;;;;;;;5059258;28;20267;-64
2022/07/28 13:24:49;;;;;;;2.92;0.70;;;;;;;;;;5059608;28;20308;-65
2022/07/28 13:27:15;;;;;;;3.20;0.90;;;;;;;;;;5061503;28;20212;-65
2022/07/28 13:29:40;;;;;;;3.10;0.55;;;;;;;;;;5050567;28;20276;-67
2022/07/28 13:32:06;;;;;;;1.48;0.50;;;;;;;;;;5051581;28;20671;-67
2022/07/28 13:34:31;;;;;;;2.15;0.60;;;;;;;;;;5053595;28;20268;-66
2022/07/28 13:36:56;;;;;;;2.67;0.70;;;;;;;;;;5059423;28;20185;-69
2022/07/28 13:39:22;;;;;;;3.30;0.63;;;;;;;;;;5057859;28;20545;-68
2022/07/28 13:41:47;;;;;;;2.33;0.80;;;;;;;;;;5051101;28;20178;-68
2022/07/28 13:44:13;;;;;;;1.48;0.57;;;;;;;;;;5048384;28;20736;-67
2022/07/28 13:46:38;;;;;;;2.65;0.90;;;;;;;;;;4699590;28;10000508;-66
2022/07/28 13:49:03;;;;;;;2.38;0.70;;;;;;;;;;5060210;28;20189;-67
2022/07/28 13:51:29;;;;;;;3.72;0.60;;;;;;;;;;5050926;28;20208;-66
2022/07/28 13:53:54;;;;;;;3.47;0.70;;;;;;;;;;5057564;28;20322;-66
2022/07/28 13:56:19;;;;;;;1.95;0.90;;;;;;;;;;5057263;28;20242;-68
2022/07/28 13:58:45;;;;;;;2.42;0.55;;;;;;;;;;5059057;28;20189;-71
2022/07/28 14:01:10;;;;;;;3.13;0.90;;;;;;;;;;5055544;28;20273;-67
2022/07/28 14:03:35;;;;;;;2.78;0.75;;;;;;;;;;5057937;28;20181;-67
2022/07/28 14:06:01;;;;;;;1.88;0.70;;;;;;;;;;5063002;28;20871;-67
2022/07/28 14:08:26;;;;;;;1.30;0.70;;;;;;;;;;5062216;28;20242;-67
2022/07/28 14:10:55;;;;;;;2.72;1.10;;;;;;;;;;5060427;28;20204;-72
2022/07/28 14:13:20;;;;;;;4.13;0.80;;;;;;;;;;5066650;28;20679;-68
2022/07/28 14:15:46;;;;;;;3.30;0.77;;;;;;;;;;5056955;28;20173;-70
2022/07/28 14:18:12;;;;;;;5.53;0.80;;;;;;;;;;5065210;28;20189;-66
2022/07/28 14:20:39;;;;;;;2.90;1.23;;;;;;;;;;5050139;28;20740;-75
2022/07/28 14:23:04;;;;;;;6.03;0.68;;;;;;;;;;5048651;28;20657;-67
2022/07/28 14:25:30;;;;;;;4.85;0.85;;;;;;;;;;5057338;28;20226;-68
2022/07/28 14:27:56;;;;;;;2.72;0.82;;;;;;;;;;5054433;28;20199;-70
2022/07/28 14:30:27;;;;;;;3.90;0.70;;;;;;;;;;5048748;28;20197;-67
2022/07/28 14:32:53;;;;;;;2.10;0.65;;;;;;;;;;5055000;28;20245;-69
2022/07/28 14:35:19;;;;;;;2.17;0.90;;;;;;;;;;5052702;28;20494;-70
2022/07/28 14:37:45;;;;;;;5.18;0.85;;;;;;;;;;5058040;28;20192;-66
2022/07/28 14:40:11;;;;;;;1.38;0.70;;;;;;;;;;5056750;28;20191;-69
2022/07/28 14:42:36;;;;;;;2.33;0.95;;;;;;;;;;5051663;28;20189;-67
2022/07/28 14:45:04;;;;;;;5.78;0.93;;;;;;;;;;5047313;28;20586;-68
2022/07/28 14:47:30;;;;;;;3.13;1.27;;;;;;;;;;5050521;28;20249;-74
2022/07/28 14:49:55;;;;;;;3.90;0.85;;;;;;;;;;5052210;28;20188;-66
2022/07/28 14:52:21;;;;;;;2.22;0.80;;;;;;;;;;5051645;28;20213;-66
2022/07/28 14:54:46;;;;;;;2.70;1.00;;;;;;;;;;5054982;28;20178;-68